Ridge, Maryland
Current Conditions -  °F | °C
As of 1:13 AM on Wednesday 22 Oct 2014 (Local Time) from KNUI Reporting Station
Broken Clouds Broken Clouds  
Wind Chill: 56°   Ceiling: 11000
Heat Index: 56°   Visibility: 10mi
Dew Point: 50°   Wind: 5mph
Humidity: 80%   Direction: NA
Pressure: 29.84"   Gusts: NA
Location:  38.12°N, 76.37°W
Report Text: KNUI 220513Z AUTO VRB04KT 10SM SCT010 BKN110 13/10 A2984 RMK AO2 T01330100
Loading
Personal Weather Stations






























Interactive Weather Map
Tropical Storm Tracking
New forecast layout! Learn more

10-Day Weather Forecast

Advertisements
Track Severe Weather on mobile